sensor_id;sensor_type;location;lat;lon;timestamp;temperature;humidity
15239;DHT22;7722;53.274;9.500;2022-11-11T00:01:05;11.10;99.90
15239;DHT22;7722;53.274;9.500;2022-11-11T00:03:32;11.10;99.90
15239;DHT22;7722;53.274;9.500;2022-11-11T00:06:01;11.00;99.90
15239;DHT22;7722;53.274;9.500;2022-11-11T00:08:28;11.00;99.90
15239;DHT22;7722;53.274;9.500;2022-11-11T00:11:01;11.00;99.90
15239;DHT22;7722;53.274;9.500;2022-11-11T00:13:28;11.00;99.90
15239;DHT22;7722;53.274;9.500;2022-11-11T00:15:55;11.00;99.90
15239;DHT22;7722;53.274;9.500;2022-11-11T00:18:22;11.00;99.90
15239;DHT22;7722;53.274;9.500;2022-11-11T00:21:12;11.00;99.90
15239;DHT22;7722;53.274;9.500;2022-11-11T00:23:56;11.00;99.90
15239;DHT22;7722;53.274;9.500;2022-11-11T00:26:42;11.00;99.90
15239;DHT22;7722;53.274;9.500;2022-11-11T00:29:10;11.00;99.90
15239;DHT22;7722;53.274;9.500;2022-11-11T00:31:37;11.00;99.90
15239;DHT22;7722;53.274;9.500;2022-11-11T00:34:24;11.00;99.90
15239;DHT22;7722;53.274;9.500;2022-11-11T00:36:51;11.00;99.90
15239;DHT22;7722;53.274;9.500;2022-11-11T00:39:17;11.00;99.90
15239;DHT22;7722;53.274;9.500;2022-11-11T00:41:46;10.90;99.90
15239;DHT22;7722;53.274;9.500;2022-11-11T00:44:13;10.90;99.90
15239;DHT22;7722;53.274;9.500;2022-11-11T00:46:40;10.90;99.90
15239;DHT22;7722;53.274;9.500;2022-11-11T00:49:25;10.90;99.90
15239;DHT22;7722;53.274;9.500;2022-11-11T00:52:09;10.90;99.90
15239;DHT22;7722;53.274;9.500;2022-11-11T00:54:36;10.90;99.90
15239;DHT22;7722;53.274;9.500;2022-11-11T00:57:04;10.90;99.90
15239;DHT22;7722;53.274;9.500;2022-11-11T00:59:31;10.90;99.90
15239;DHT22;7722;53.274;9.500;2022-11-11T01:01:59;10.90;99.90
15239;DHT22;7722;53.274;9.500;2022-11-11T01:04:26;10.80;99.90
15239;DHT22;7722;53.274;9.500;2022-11-11T01:06:53;10.80;99.90
15239;DHT22;7722;53.274;9.500;2022-11-11T01:09:20;10.80;99.90
15239;DHT22;7722;53.274;9.500;2022-11-11T01:11:47;10.80;99.90
15239;DHT22;7722;53.274;9.500;2022-11-11T01:14:16;10.80;99.90
15239;DHT22;7722;53.274;9.500;2022-11-11T01:16:43;10.70;99.90
15239;DHT22;7722;53.274;9.500;2022-11-11T01:19:10;10.80;99.90
15239;DHT22;7722;53.274;9.500;2022-11-11T01:21:37;10.70;99.90
15239;DHT22;7722;53.274;9.500;2022-11-11T01:24:04;10.70;99.90
15239;DHT22;7722;53.274;9.500;2022-11-11T01:26:31;10.70;99.90
15239;DHT22;7722;53.274;9.500;2022-11-11T01:28:58;10.70;99.90
15239;DHT22;7722;53.274;9.500;2022-11-11T01:31:27;10.70;99.90
15239;DHT22;7722;53.274;9.500;2022-11-11T01:33:54;10.70;99.90
15239;DHT22;7722;53.274;9.500;2022-11-11T01:36:23;10.70;99.90
15239;DHT22;7722;53.274;9.500;2022-11-11T01:38:51;10.60;99.90
15239;DHT22;7722;53.274;9.500;2022-11-11T01:41:22;10.60;99.90
15239;DHT22;7722;53.274;9.500;2022-11-11T01:43:58;10.60;99.90
15239;DHT22;7722;53.274;9.500;2022-11-11T01:46:31;10.60;99.90
15239;DHT22;7722;53.274;9.500;2022-11-11T01:49:14;10.50;99.90
15239;DHT22;7722;53.274;9.500;2022-11-11T01:51:50;10.50;99.90
15239;DHT22;7722;53.274;9.500;2022-11-11T01:54:23;10.50;99.90
15239;DHT22;7722;53.274;9.500;2022-11-11T01:56:59;10.50;99.90
15239;DHT22;7722;53.274;9.500;2022-11-11T01:59:27;10.50;99.90
15239;DHT22;7722;53.274;9.500;2022-11-11T02:01:58;10.40;99.90
15239;DHT22;7722;53.274;9.500;2022-11-11T02:04:25;10.40;99.90
15239;DHT22;7722;53.274;9.500;2022-11-11T02:07:10;10.30;99.90
15239;DHT22;7722;53.274;9.500;2022-11-11T02:09:40;10.20;99.90
15239;DHT22;7722;53.274;9.500;2022-11-11T02:12:08;10.30;99.90
15239;DHT22;7722;53.274;9.500;2022-11-11T02:14:55;10.30;99.90
15239;DHT22;7722;53.274;9.500;2022-11-11T02:17:25;10.30;99.90
15239;DHT22;7722;53.274;9.500;2022-11-11T02:19:55;10.20;99.90
15239;DHT22;7722;53.274;9.500;2022-11-11T02:22:30;10.20;99.90
15239;DHT22;7722;53.274;9.500;2022-11-11T02:25:02;10.20;99.90
15239;DHT22;7722;53.274;9.500;2022-11-11T02:27:31;10.20;99.90
15239;DHT22;7722;53.274;9.500;2022-11-11T02:30:01;10.20;99.90
15239;DHT22;7722;53.274;9.500;2022-11-11T02:32:30;10.10;99.90
15239;DHT22;7722;53.274;9.500;2022-11-11T02:34:57;10.10;99.90
15239;DHT22;7722;53.274;9.500;2022-11-11T02:37:25;10.00;99.90
15239;DHT22;7722;53.274;9.500;2022-11-11T02:39:56;10.00;99.90
15239;DHT22;7722;53.274;9.500;2022-11-11T02:42:26;10.00;99.90
15239;DHT22;7722;53.274;9.500;2022-11-11T02:44:54;10.00;99.90
15239;DHT22;7722;53.274;9.500;2022-11-11T02:47:24;9.90;99.90
15239;DHT22;7722;53.274;9.500;2022-11-11T02:49:51;9.90;99.90
15239;DHT22;7722;53.274;9.500;2022-11-11T02:52:19;9.90;99.90
15239;DHT22;7722;53.274;9.500;2022-11-11T02:54:46;9.80;99.90
15239;DHT22;7722;53.274;9.500;2022-11-11T02:57:14;9.80;99.90
15239;DHT22;7722;53.274;9.500;2022-11-11T02:59:43;9.80;99.90
15239;DHT22;7722;53.274;9.500;2022-11-11T03:02:10;9.80;99.90
15239;DHT22;7722;53.274;9.500;2022-11-11T03:04:37;9.80;99.90
15239;DHT22;7722;53.274;9.500;2022-11-11T03:07:04;9.80;99.90
15239;DHT22;7722;53.274;9.500;2022-11-11T03:09:31;9.70;99.90
15239;DHT22;7722;53.274;9.500;2022-11-11T03:11:59;9.80;99.90
15239;DHT22;7722;53.274;9.500;2022-11-11T03:14:26;9.70;99.90
15239;DHT22;7722;53.274;9.500;2022-11-11T03:16:54;9.70;99.90
15239;DHT22;7722;53.274;9.500;2022-11-11T03:19:39;9.70;99.90
15239;DHT22;7722;53.274;9.500;2022-11-11T03:22:06;9.80;99.90
15239;DHT22;7722;53.274;9.500;2022-11-11T03:24:32;9.80;99.90
15239;DHT22;7722;53.274;9.500;2022-11-11T03:27:16;9.80;99.90
15239;DHT22;7722;53.274;9.500;2022-11-11T03:29:43;9.80;99.90
15239;DHT22;7722;53.274;9.500;2022-11-11T03:32:12;9.80;99.90
15239;DHT22;7722;53.274;9.500;2022-11-11T03:34:39;9.70;99.90
15239;DHT22;7722;53.274;9.500;2022-11-11T03:37:07;9.70;99.90
15239;DHT22;7722;53.274;9.500;2022-11-11T03:39:52;9.70;99.90
15239;DHT22;7722;53.274;9.500;2022-11-11T03:42:19;9.80;99.90
15239;DHT22;7722;53.274;9.500;2022-11-11T03:44:46;9.80;99.90
15239;DHT22;7722;53.274;9.500;2022-11-11T03:47:15;9.80;99.90
15239;DHT22;7722;53.274;9.500;2022-11-11T03:49:42;9.80;99.90
15239;DHT22;7722;53.274;9.500;2022-11-11T03:52:11;9.80;99.90
15239;DHT22;7722;53.274;9.500;2022-11-11T03:54:38;9.80;99.90
15239;DHT22;7722;53.274;9.500;2022-11-11T03:57:06;9.80;99.90
15239;DHT22;7722;53.274;9.500;2022-11-11T03:59:50;9.70;99.90
15239;DHT22;7722;53.274;9.500;2022-11-11T04:02:18;9.80;99.90
15239;DHT22;7722;53.274;9.500;2022-11-11T04:05:03;9.70;99.90
15239;DHT22;7722;53.274;9.500;2022-11-11T04:07:50;9.80;99.90
15239;DHT22;7722;53.274;9.500;2022-11-11T04:10:34;9.70;99.90
15239;DHT22;7722;53.274;9.500;2022-11-11T04:13:02;9.70;99.90
15239;DHT22;7722;53.274;9.500;2022-11-11T04:15:47;9.70;99.90
15239;DHT22;7722;53.274;9.500;2022-11-11T04:18:34;9.60;99.90
15239;DHT22;7722;53.274;9.500;2022-11-11T04:21:19;9.60;99.90
15239;DHT22;7722;53.274;9.500;2022-11-11T04:24:17;9.70;99.90
15239;DHT22;7722;53.274;9.500;2022-11-11T04:27:03;9.70;99.90
15239;DHT22;7722;53.274;9.500;2022-11-11T04:29:31;9.70;99.90
15239;DHT22;7722;53.274;9.500;2022-11-11T04:31:58;9.70;99.90
15239;DHT22;7722;53.274;9.500;2022-11-11T04:34:46;9.70;99.90
15239;DHT22;7722;53.274;9.500;2022-11-11T04:37:14;9.70;99.90
15239;DHT22;7722;53.274;9.500;2022-11-11T04:39:41;9.70;99.90
15239;DHT22;7722;53.274;9.500;2022-11-11T04:42:26;9.70;99.90
15239;DHT22;7722;53.274;9.500;2022-11-11T04:44:54;9.70;99.90
15239;DHT22;7722;53.274;9.500;2022-11-11T04:47:52;9.60;99.90
15239;DHT22;7722;53.274;9.500;2022-11-11T04:50:21;9.60;99.90
15239;DHT22;7722;53.274;9.500;2022-11-11T04:52:48;9.60;99.90
15239;DHT22;7722;53.274;9.500;2022-11-11T04:55:15;9.60;99.90
15239;DHT22;7722;53.274;9.500;2022-11-11T04:57:59;9.60;99.90
15239;DHT22;7722;53.274;9.500;2022-11-11T05:00:26;9.70;99.90
15239;DHT22;7722;53.274;9.500;2022-11-11T05:02:53;9.60;99.90
15239;DHT22;7722;53.274;9.500;2022-11-11T05:05:39;9.60;99.90
15239;DHT22;7722;53.274;9.500;2022-11-11T05:08:24;9.60;99.90
15239;DHT22;7722;53.274;9.500;2022-11-11T05:11:08;9.60;99.90
15239;DHT22;7722;53.274;9.500;2022-11-11T05:13:35;9.60;99.90
15239;DHT22;7722;53.274;9.500;2022-11-11T05:16:22;9.60;99.90
15239;DHT22;7722;53.274;9.500;2022-11-11T05:19:10;9.70;99.90
15239;DHT22;7722;53.274;9.500;2022-11-11T05:22:05;9.70;99.90
15239;DHT22;7722;53.274;9.500;2022-11-11T05:24:33;9.70;99.90
15239;DHT22;7722;53.274;9.500;2022-11-11T05:27:17;9.70;99.90
15239;DHT22;7722;53.274;9.500;2022-11-11T05:29:46;9.70;99.90
15239;DHT22;7722;53.274;9.500;2022-11-11T05:32:16;9.70;99.90
15239;DHT22;7722;53.274;9.500;2022-11-11T05:34:44;9.70;99.90
15239;DHT22;7722;53.274;9.500;2022-11-11T05:37:13;9.70;99.90
15239;DHT22;7722;53.274;9.500;2022-11-11T05:39:40;9.60;99.90
15239;DHT22;7722;53.274;9.500;2022-11-11T05:42:08;9.70;99.90
15239;DHT22;7722;53.274;9.500;2022-11-11T05:44:35;9.60;99.90
15239;DHT22;7722;53.274;9.500;2022-11-11T05:47:02;9.60;99.90
15239;DHT22;7722;53.274;9.500;2022-11-11T05:49:30;9.60;99.90
15239;DHT22;7722;53.274;9.500;2022-11-11T05:51:57;9.60;99.90
15239;DHT22;7722;53.274;9.500;2022-11-11T05:54:25;9.70;99.90
15239;DHT22;7722;53.274;9.500;2022-11-11T05:56:52;9.70;99.90
15239;DHT22;7722;53.274;9.500;2022-11-11T05:59:19;9.70;99.90
15239;DHT22;7722;53.274;9.500;2022-11-11T06:01:46;9.70;99.90
15239;DHT22;7722;53.274;9.500;2022-11-11T06:04:13;9.60;99.90
15239;DHT22;7722;53.274;9.500;2022-11-11T06:06:40;9.60;99.90
15239;DHT22;7722;53.274;9.500;2022-11-11T06:09:07;9.70;99.90
15239;DHT22;7722;53.274;9.500;2022-11-11T06:11:36;9.60;99.90
15239;DHT22;7722;53.274;9.500;2022-11-11T06:14:03;9.70;99.90
15239;DHT22;7722;53.274;9.500;2022-11-11T06:16:30;9.70;99.90
15239;DHT22;7722;53.274;9.500;2022-11-11T06:18:57;9.60;99.90
15239;DHT22;7722;53.274;9.500;2022-11-11T06:21:25;9.60;99.90
15239;DHT22;7722;53.274;9.500;2022-11-11T06:23:52;9.60;99.90
15239;DHT22;7722;53.274;9.500;2022-11-11T06:26:19;9.60;99.90
15239;DHT22;7722;53.274;9.500;2022-11-11T06:28:49;9.70;99.90
15239;DHT22;7722;53.274;9.500;2022-11-11T06:31:18;9.70;99.90
15239;DHT22;7722;53.274;9.500;2022-11-11T06:33:45;9.70;99.90
15239;DHT22;7722;53.274;9.500;2022-11-11T06:36:14;9.60;99.90
15239;DHT22;7722;53.274;9.500;2022-11-11T06:38:42;9.60;99.90
15239;DHT22;7722;53.274;9.500;2022-11-11T06:41:10;9.60;99.90
15239;DHT22;7722;53.274;9.500;2022-11-11T06:43:37;9.60;99.90
15239;DHT22;7722;53.274;9.500;2022-11-11T06:46:06;9.70;99.90
15239;DHT22;7722;53.274;9.500;2022-11-11T06:48:33;9.70;99.90
15239;DHT22;7722;53.274;9.500;2022-11-11T06:51:01;9.70;99.90
15239;DHT22;7722;53.274;9.500;2022-11-11T06:53:29;9.70;99.90
15239;DHT22;7722;53.274;9.500;2022-11-11T06:55:57;9.70;99.90
15239;DHT22;7722;53.274;9.500;2022-11-11T06:58:24;9.70;99.90
15239;DHT22;7722;53.274;9.500;2022-11-11T07:00:51;9.70;99.90
15239;DHT22;7722;53.274;9.500;2022-11-11T07:03:20;9.70;99.90
15239;DHT22;7722;53.274;9.500;2022-11-11T07:05:48;9.70;99.90
15239;DHT22;7722;53.274;9.500;2022-11-11T07:08:16;9.60;99.90
15239;DHT22;7722;53.274;9.500;2022-11-11T07:10:45;9.60;99.90
15239;DHT22;7722;53.274;9.500;2022-11-11T07:13:13;9.70;99.90
15239;DHT22;7722;53.274;9.500;2022-11-11T07:15:41;9.80;99.90
15239;DHT22;7722;53.274;9.500;2022-11-11T07:18:09;9.80;99.90
15239;DHT22;7722;53.274;9.500;2022-11-11T07:20:38;9.70;99.90
15239;DHT22;7722;53.274;9.500;2022-11-11T07:23:05;9.80;99.90
15239;DHT22;7722;53.274;9.500;2022-11-11T07:25:32;9.80;99.90
15239;DHT22;7722;53.274;9.500;2022-11-11T07:27:59;9.90;99.90
15239;DHT22;7722;53.274;9.500;2022-11-11T07:30:26;9.90;99.90
15239;DHT22;7722;53.274;9.500;2022-11-11T07:32:53;10.00;99.90
15239;DHT22;7722;53.274;9.500;2022-11-11T07:35:21;10.00;99.90
15239;DHT22;7722;53.274;9.500;2022-11-11T07:37:50;10.00;99.90
15239;DHT22;7722;53.274;9.500;2022-11-11T07:40:18;10.10;99.90
15239;DHT22;7722;53.274;9.500;2022-11-11T07:42:46;10.00;99.90
15239;DHT22;7722;53.274;9.500;2022-11-11T07:45:13;10.10;99.90
15239;DHT22;7722;53.274;9.500;2022-11-11T07:47:44;10.10;99.90
15239;DHT22;7722;53.274;9.500;2022-11-11T07:50:12;10.10;99.90
15239;DHT22;7722;53.274;9.500;2022-11-11T07:52:39;10.10;99.90
15239;DHT22;7722;53.274;9.500;2022-11-11T07:55:08;10.20;99.90
15239;DHT22;7722;53.274;9.500;2022-11-11T07:57:35;10.10;99.90
15239;DHT22;7722;53.274;9.500;2022-11-11T08:00:04;10.10;99.90
15239;DHT22;7722;53.274;9.500;2022-11-11T08:02:31;10.00;99.90
15239;DHT22;7722;53.274;9.500;2022-11-11T08:04:59;10.10;99.90
15239;DHT22;7722;53.274;9.500;2022-11-11T08:07:26;10.20;99.90
15239;DHT22;7722;53.274;9.500;2022-11-11T08:09:53;10.20;99.90
15239;DHT22;7722;53.274;9.500;2022-11-11T08:12:21;10.30;99.90
15239;DHT22;7722;53.274;9.500;2022-11-11T08:15:07;10.20;99.90
15239;DHT22;7722;53.274;9.500;2022-11-11T08:17:36;10.30;99.90
15239;DHT22;7722;53.274;9.500;2022-11-11T08:20:05;10.30;99.90
15239;DHT22;7722;53.274;9.500;2022-11-11T08:22:35;10.20;99.90
15239;DHT22;7722;53.274;9.500;2022-11-11T08:25:02;10.30;99.90
15239;DHT22;7722;53.274;9.500;2022-11-11T08:27:31;10.20;99.90
15239;DHT22;7722;53.274;9.500;2022-11-11T08:29:58;10.20;99.90
15239;DHT22;7722;53.274;9.500;2022-11-11T08:32:25;10.20;99.90
15239;DHT22;7722;53.274;9.500;2022-11-11T08:34:52;10.20;99.90
15239;DHT22;7722;53.274;9.500;2022-11-11T08:37:19;10.10;99.90
15239;DHT22;7722;53.274;9.500;2022-11-11T08:39:46;10.00;99.90
15239;DHT22;7722;53.274;9.500;2022-11-11T08:42:13;10.00;99.90
15239;DHT22;7722;53.274;9.500;2022-11-11T08:44:42;9.90;99.90
15239;DHT22;7722;53.274;9.500;2022-11-11T08:47:09;9.90;99.90
15239;DHT22;7722;53.274;9.500;2022-11-11T08:49:36;10.00;99.90
15239;DHT22;7722;53.274;9.500;2022-11-11T08:52:03;10.00;99.90
15239;DHT22;7722;53.274;9.500;2022-11-11T08:54:32;10.00;99.90
15239;DHT22;7722;53.274;9.500;2022-11-11T08:56:59;10.00;99.90
15239;DHT22;7722;53.274;9.500;2022-11-11T08:59:26;9.90;99.90
15239;DHT22;7722;53.274;9.500;2022-11-11T09:01:54;10.00;99.90
15239;DHT22;7722;53.274;9.500;2022-11-11T09:04:21;10.00;99.90
15239;DHT22;7722;53.274;9.500;2022-11-11T09:06:48;10.10;99.90
15239;DHT22;7722;53.274;9.500;2022-11-11T09:09:15;10.10;99.90
15239;DHT22;7722;53.274;9.500;2022-11-11T09:11:43;10.10;99.90
15239;DHT22;7722;53.274;9.500;2022-11-11T09:14:10;10.00;99.90
15239;DHT22;7722;53.274;9.500;2022-11-11T09:16:37;9.90;99.90
15239;DHT22;7722;53.274;9.500;2022-11-11T09:19:05;10.00;99.90
15239;DHT22;7722;53.274;9.500;2022-11-11T09:21:32;9.90;99.90
15239;DHT22;7722;53.274;9.500;2022-11-11T09:23:59;10.00;99.90
15239;DHT22;7722;53.274;9.500;2022-11-11T09:26:26;10.10;99.90
15239;DHT22;7722;53.274;9.500;2022-11-11T09:28:53;10.00;99.90
15239;DHT22;7722;53.274;9.500;2022-11-11T09:31:20;10.10;99.90
15239;DHT22;7722;53.274;9.500;2022-11-11T09:33:48;10.20;99.90
15239;DHT22;7722;53.274;9.500;2022-11-11T09:36:17;10.20;99.90
15239;DHT22;7722;53.274;9.500;2022-11-11T09:38:45;10.20;99.90
15239;DHT22;7722;53.274;9.500;2022-11-11T09:41:17;10.20;99.90
15239;DHT22;7722;53.274;9.500;2022-11-11T09:43:52;10.20;99.90
15239;DHT22;7722;53.274;9.500;2022-11-11T09:46:30;10.20;99.90
15239;DHT22;7722;53.274;9.500;2022-11-11T09:49:26;10.10;99.90
15239;DHT22;7722;53.274;9.500;2022-11-11T09:54:32;10.30;99.90
15239;DHT22;7722;53.274;9.500;2022-11-11T09:57:05;10.30;99.90
15239;DHT22;7722;53.274;9.500;2022-11-11T09:59:40;10.30;99.90
15239;DHT22;7722;53.274;9.500;2022-11-11T10:02:18;10.30;99.90
15239;DHT22;7722;53.274;9.500;2022-11-11T10:04:52;10.30;99.90
15239;DHT22;7722;53.274;9.500;2022-11-11T10:07:33;10.30;99.90
15239;DHT22;7722;53.274;9.500;2022-11-11T10:10:07;10.20;99.90
15239;DHT22;7722;53.274;9.500;2022-11-11T10:12:45;10.20;99.90
15239;DHT22;7722;53.274;9.500;2022-11-11T10:15:14;10.30;99.90
15239;DHT22;7722;53.274;9.500;2022-11-11T10:17:49;10.30;99.90
15239;DHT22;7722;53.274;9.500;2022-11-11T10:20:23;10.30;99.90
15239;DHT22;7722;53.274;9.500;2022-11-11T10:22:57;10.40;99.90
15239;DHT22;7722;53.274;9.500;2022-11-11T10:25:27;10.40;99.90
15239;DHT22;7722;53.274;9.500;2022-11-11T10:27:57;10.40;99.90
15239;DHT22;7722;53.274;9.500;2022-11-11T10:30:26;10.40;99.90
15239;DHT22;7722;53.274;9.500;2022-11-11T10:32:56;10.50;99.90
15239;DHT22;7722;53.274;9.500;2022-11-11T10:35:27;10.40;99.90
15239;DHT22;7722;53.274;9.500;2022-11-11T10:38:02;10.40;99.90
15239;DHT22;7722;53.274;9.500;2022-11-11T10:40:38;10.50;99.90
15239;DHT22;7722;53.274;9.500;2022-11-11T10:43:18;10.50;99.90
15239;DHT22;7722;53.274;9.500;2022-11-11T10:45:53;10.60;99.90
15239;DHT22;7722;53.274;9.500;2022-11-11T10:48:28;10.60;99.90
15239;DHT22;7722;53.274;9.500;2022-11-11T10:50:58;10.70;99.90
15239;DHT22;7722;53.274;9.500;2022-11-11T10:53:31;10.70;99.90
15239;DHT22;7722;53.274;9.500;2022-11-11T10:56:03;10.70;99.90
15239;DHT22;7722;53.274;9.500;2022-11-11T10:58:37;10.70;99.90
15239;DHT22;7722;53.274;9.500;2022-11-11T11:01:11;10.80;99.90
15239;DHT22;7722;53.274;9.500;2022-11-11T11:03:42;11.00;99.90
15239;DHT22;7722;53.274;9.500;2022-11-11T11:06:13;11.10;99.90
15239;DHT22;7722;53.274;9.500;2022-11-11T11:08:46;11.30;99.90
15239;DHT22;7722;53.274;9.500;2022-11-11T11:11:18;11.30;99.90
15239;DHT22;7722;53.274;9.500;2022-11-11T11:13:49;11.20;99.90
15239;DHT22;7722;53.274;9.500;2022-11-11T11:16:21;11.10;99.90
15239;DHT22;7722;53.274;9.500;2022-11-11T11:19:18;11.00;99.90
15239;DHT22;7722;53.274;9.500;2022-11-11T11:21:51;11.10;99.90
15239;DHT22;7722;53.274;9.500;2022-11-11T11:24:22;11.00;99.90
15239;DHT22;7722;53.274;9.500;2022-11-11T11:26:52;11.00;99.90
15239;DHT22;7722;53.274;9.500;2022-11-11T11:29:27;11.00;99.90
15239;DHT22;7722;53.274;9.500;2022-11-11T11:31:55;11.10;99.90
15239;DHT22;7722;53.274;9.500;2022-11-11T11:34:45;11.10;99.90
15239;DHT22;7722;53.274;9.500;2022-11-11T11:37:13;11.10;99.90
15239;DHT22;7722;53.274;9.500;2022-11-11T11:39:41;11.00;99.90
15239;DHT22;7722;53.274;9.500;2022-11-11T11:42:26;11.00;99.90
15239;DHT22;7722;53.274;9.500;2022-11-11T11:44:54;11.20;99.90
15239;DHT22;7722;53.274;9.500;2022-11-11T11:47:41;11.20;99.90
15239;DHT22;7722;53.274;9.500;2022-11-11T11:53:24;11.30;99.90
15239;DHT22;7722;53.274;9.500;2022-11-11T11:56:02;11.30;99.90
15239;DHT22;7722;53.274;9.500;2022-11-11T11:58:39;11.20;99.90
15239;DHT22;7722;53.274;9.500;2022-11-11T12:01:12;11.20;99.90
15239;DHT22;7722;53.274;9.500;2022-11-11T12:04:14;11.30;99.90
15239;DHT22;7722;53.274;9.500;2022-11-11T12:06:53;11.40;99.90
15239;DHT22;7722;53.274;9.500;2022-11-11T12:09:30;11.20;99.90
15239;DHT22;7722;53.274;9.500;2022-11-11T12:12:07;11.30;99.90
15239;DHT22;7722;53.274;9.500;2022-11-11T12:14:50;11.40;99.90
15239;DHT22;7722;53.274;9.500;2022-11-11T12:17:28;11.50;99.90
15239;DHT22;7722;53.274;9.500;2022-11-11T12:20:03;11.70;99.90
15239;DHT22;7722;53.274;9.500;2022-11-11T12:22:47;11.90;99.90
15239;DHT22;7722;53.274;9.500;2022-11-11T12:25:27;12.20;99.90
15239;DHT22;7722;53.274;9.500;2022-11-11T12:28:03;12.10;99.90
15239;DHT22;7722;53.274;9.500;2022-11-11T12:30:35;12.40;99.90
15239;DHT22;7722;53.274;9.500;2022-11-11T12:33:26;12.30;99.90
15239;DHT22;7722;53.274;9.500;2022-11-11T12:36:07;12.30;99.90
15239;DHT22;7722;53.274;9.500;2022-11-11T12:38:49;12.50;99.90
15239;DHT22;7722;53.274;9.500;2022-11-11T12:41:29;12.70;99.90
15239;DHT22;7722;53.274;9.500;2022-11-11T12:44:04;12.70;99.90
15239;DHT22;7722;53.274;9.500;2022-11-11T12:46:41;12.80;99.90
15239;DHT22;7722;53.274;9.500;2022-11-11T12:49:39;12.90;99.90
15239;DHT22;7722;53.274;9.500;2022-11-11T12:52:17;12.70;99.90
15239;DHT22;7722;53.274;9.500;2022-11-11T12:54:57;12.70;99.90
15239;DHT22;7722;53.274;9.500;2022-11-11T12:57:30;12.60;99.90
15239;DHT22;7722;53.274;9.500;2022-11-11T13:00:07;12.50;99.90
15239;DHT22;7722;53.274;9.500;2022-11-11T13:02:48;12.50;99.90
15239;DHT22;7722;53.274;9.500;2022-11-11T13:05:20;12.80;99.90
15239;DHT22;7722;53.274;9.500;2022-11-11T13:08:11;13.10;99.90
15239;DHT22;7722;53.274;9.500;2022-11-11T13:10:46;13.50;99.90
15239;DHT22;7722;53.274;9.500;2022-11-11T13:13:39;13.80;99.90
15239;DHT22;7722;53.274;9.500;2022-11-11T13:16:11;13.70;99.90
15239;DHT22;7722;53.274;9.500;2022-11-11T13:18:50;13.90;99.90
15239;DHT22;7722;53.274;9.500;2022-11-11T13:21:23;14.10;99.90
15239;DHT22;7722;53.274;9.500;2022-11-11T13:23:52;13.90;99.90
15239;DHT22;7722;53.274;9.500;2022-11-11T13:26:25;14.00;99.90
15239;DHT22;7722;53.274;9.500;2022-11-11T13:29:08;14.10;99.90
15239;DHT22;7722;53.274;9.500;2022-11-11T13:31:44;14.30;99.90
15239;DHT22;7722;53.274;9.500;2022-11-11T13:34:14;14.50;99.90
15239;DHT22;7722;53.274;9.500;2022-11-11T13:36:44;14.60;99.90
15239;DHT22;7722;53.274;9.500;2022-11-11T13:39:23;14.40;99.90
15239;DHT22;7722;53.274;9.500;2022-11-11T13:41:54;14.30;99.90
15239;DHT22;7722;53.274;9.500;2022-11-11T13:44:24;14.20;99.90
15239;DHT22;7722;53.274;9.500;2022-11-11T13:46:59;14.20;99.90
15239;DHT22;7722;53.274;9.500;2022-11-11T13:49:30;14.30;99.90
15239;DHT22;7722;53.274;9.500;2022-11-11T13:51:59;14.20;99.90
15239;DHT22;7722;53.274;9.500;2022-11-11T13:54:28;14.20;99.90
15239;DHT22;7722;53.274;9.500;2022-11-11T13:57:03;14.20;99.90
15239;DHT22;7722;53.274;9.500;2022-11-11T13:59:34;14.10;99.90
15239;DHT22;7722;53.274;9.500;2022-11-11T14:02:28;13.90;99.90
15239;DHT22;7722;53.274;9.500;2022-11-11T14:05:18;14.00;99.90
15239;DHT22;7722;53.274;9.500;2022-11-11T14:07:51;14.10;99.90
15239;DHT22;7722;53.274;9.500;2022-11-11T14:10:51;14.10;99.90
15239;DHT22;7722;53.274;9.500;2022-11-11T14:13:38;14.00;99.90
15239;DHT22;7722;53.274;9.500;2022-11-11T14:16:12;13.90;99.90
15239;DHT22;7722;53.274;9.500;2022-11-11T14:19:26;13.90;99.90
15239;DHT22;7722;53.274;9.500;2022-11-11T14:21:54;13.70;99.90
15239;DHT22;7722;53.274;9.500;2022-11-11T14:24:23;13.70;99.90
15239;DHT22;7722;53.274;9.500;2022-11-11T14:26:58;13.60;99.90
15239;DHT22;7722;53.274;9.500;2022-11-11T14:29:30;13.40;99.90
15239;DHT22;7722;53.274;9.500;2022-11-11T14:32:29;13.30;99.90
15239;DHT22;7722;53.274;9.500;2022-11-11T14:35:15;13.20;99.90
15239;DHT22;7722;53.274;9.500;2022-11-11T14:38:01;13.10;99.90
15239;DHT22;7722;53.274;9.500;2022-11-11T14:40:31;13.00;99.90
15239;DHT22;7722;53.274;9.500;2022-11-11T14:42:58;12.90;99.90
15239;DHT22;7722;53.274;9.500;2022-11-11T14:46:02;12.80;99.90
15239;DHT22;7722;53.274;9.500;2022-11-11T14:48:57;12.90;99.90
15239;DHT22;7722;53.274;9.500;2022-11-11T14:51:47;12.60;99.90
15239;DHT22;7722;53.274;9.500;2022-11-11T14:54:35;12.50;99.90
15239;DHT22;7722;53.274;9.500;2022-11-11T14:57:06;12.50;99.90
15239;DHT22;7722;53.274;9.500;2022-11-11T14:59:37;12.40;99.90
15239;DHT22;7722;53.274;9.500;2022-11-11T15:02:12;12.30;99.90
15239;DHT22;7722;53.274;9.500;2022-11-11T15:04:41;12.20;99.90
15239;DHT22;7722;53.274;9.500;2022-11-11T15:07:24;12.10;99.90
15239;DHT22;7722;53.274;9.500;2022-11-11T15:12:52;11.90;99.90
15239;DHT22;7722;53.274;9.500;2022-11-11T15:15:25;11.80;99.90
15239;DHT22;7722;53.274;9.500;2022-11-11T15:18:01;11.70;99.90
15239;DHT22;7722;53.274;9.500;2022-11-11T15:20:47;11.50;99.90
15239;DHT22;7722;53.274;9.500;2022-11-11T15:23:26;11.40;99.90
15239;DHT22;7722;53.274;9.500;2022-11-11T15:26:04;11.30;99.90
15239;DHT22;7722;53.274;9.500;2022-11-11T15:28:57;11.10;99.90
15239;DHT22;7722;53.274;9.500;2022-11-11T15:31:30;11.00;99.90
15239;DHT22;7722;53.274;9.500;2022-11-11T15:34:06;10.80;99.90
15239;DHT22;7722;53.274;9.500;2022-11-11T15:36:50;10.70;99.90
15239;DHT22;7722;53.274;9.500;2022-11-11T15:39:22;10.60;99.90
15239;DHT22;7722;53.274;9.500;2022-11-11T15:41:52;10.40;99.90
15239;DHT22;7722;53.274;9.500;2022-11-11T15:44:22;10.30;99.90
15239;DHT22;7722;53.274;9.500;2022-11-11T15:46:51;10.10;99.90
15239;DHT22;7722;53.274;9.500;2022-11-11T15:49:38;10.00;99.90
15239;DHT22;7722;53.274;9.500;2022-11-11T15:52:29;9.90;99.90
15239;DHT22;7722;53.274;9.500;2022-11-11T15:54:58;9.70;99.90
15239;DHT22;7722;53.274;9.500;2022-11-11T15:57:28;9.80;99.90
15239;DHT22;7722;53.274;9.500;2022-11-11T15:59:56;9.90;99.90
15239;DHT22;7722;53.274;9.500;2022-11-11T16:02:26;9.80;99.90
15239;DHT22;7722;53.274;9.500;2022-11-11T16:04:57;9.60;99.90
15239;DHT22;7722;53.274;9.500;2022-11-11T16:07:29;9.50;99.90
15239;DHT22;7722;53.274;9.500;2022-11-11T16:10:04;9.50;99.90
15239;DHT22;7722;53.274;9.500;2022-11-11T16:12:37;9.40;99.90
15239;DHT22;7722;53.274;9.500;2022-11-11T16:15:09;9.20;99.90
15239;DHT22;7722;53.274;9.500;2022-11-11T16:17:38;9.20;99.90
15239;DHT22;7722;53.274;9.500;2022-11-11T16:20:12;9.30;99.90
15239;DHT22;7722;53.274;9.500;2022-11-11T16:22:45;9.20;99.90
15239;DHT22;7722;53.274;9.500;2022-11-11T16:25:19;9.10;99.90
15239;DHT22;7722;53.274;9.500;2022-11-11T16:28:01;9.00;99.90
15239;DHT22;7722;53.274;9.500;2022-11-11T16:30:34;9.00;99.90
15239;DHT22;7722;53.274;9.500;2022-11-11T16:33:19;8.90;99.90
15239;DHT22;7722;53.274;9.500;2022-11-11T16:36:06;8.80;99.90
15239;DHT22;7722;53.274;9.500;2022-11-11T16:38:34;8.70;99.90